Time;durP1;ratioP1;P1;durP2;ratioP2;P2;SDS_P1;SDS_P2;PMS_P1;PMS_P2;Temp;Humidity;BMP_temperature;BMP_pressure;BME280_temperature;BME280_humidity;BME280_pressure;Samples;Min_cycle;Max_cycle;Signal;HPM_P1;HPM_P2
2022/05/15 00:01:22;;;;;;;7.18;4.18;;;;;;;12.65;100.00;96629.78;5061149;28;20092;-47
2022/05/15 00:03:51;;;;;;;8.25;4.40;;;;;;;12.75;100.00;96630.53;5055351;28;20088;-58
2022/05/15 00:06:19;;;;;;;6.45;4.15;;;;;;;12.78;100.00;96627.56;5060935;28;20472;-51
2022/05/15 00:08:47;;;;;;;6.22;3.97;;;;;;;12.53;100.00;96631.84;5063557;28;20048;-49
2022/05/15 00:11:17;;;;;;;5.45;3.80;;;;;;;12.46;100.00;96622.88;5060058;28;20072;-50
2022/05/15 00:13:47;;;;;;;5.80;3.60;;;;;;;12.45;100.00;96626.47;5062506;28;20071;-52
2022/05/15 00:16:16;;;;;;;5.00;3.55;;;;;;;12.29;100.00;96625.34;5061448;28;20080;-54
2022/05/15 00:18:46;;;;;;;6.30;3.58;;;;;;;12.35;100.00;96624.75;5060246;28;20091;-50
2022/05/15 00:21:14;;;;;;;6.68;4.05;;;;;;;12.43;100.00;96616.06;5060504;28;20075;-53
2022/05/15 00:23:43;;;;;;;5.55;3.63;;;;;;;12.18;100.00;96622.94;5062816;28;20068;-55
2022/05/15 00:26:11;;;;;;;5.47;3.92;;;;;;;12.05;100.00;96627.75;5061723;28;20446;-47
2022/05/15 00:28:40;;;;;;;4.90;4.40;;;;;;;12.09;100.00;96627.31;5065650;28;20506;-45
2022/05/15 00:31:09;;;;;;;9.73;4.30;;;;;;;12.19;100.00;96623.75;5069532;28;20083;-53
2022/05/15 00:33:38;;;;;;;5.45;4.32;;;;;;;12.00;100.00;96627.34;5062303;28;20380;-50
2022/05/15 00:36:08;;;;;;;6.72;4.60;;;;;;;12.06;100.00;96626.78;5064858;28;20117;-54
2022/05/15 00:38:36;;;;;;;4.50;4.05;;;;;;;12.09;100.00;96624.66;5063992;28;20072;-47
2022/05/15 00:41:04;;;;;;;6.35;4.50;;;;;;;12.18;100.00;96628.22;5066311;28;20530;-48
2022/05/15 00:43:41;;;;;;;5.63;5.00;;;;;;;11.92;100.00;96627.28;5064419;28;20060;-48
2022/05/15 00:46:12;;;;;;;9.05;4.88;;;;;;;11.90;100.00;96623.94;5065040;28;20067;-50
2022/05/15 00:48:41;;;;;;;6.82;4.75;;;;;;;11.95;100.00;96627.81;5064921;28;20424;-50
2022/05/15 00:51:17;;;;;;;6.63;4.30;;;;;;;12.10;100.00;96621.03;5066564;28;20076;-48
2022/05/15 00:53:47;;;;;;;5.95;5.10;;;;;;;12.14;100.00;96618.09;5065035;28;20068;-54
2022/05/15 00:56:19;;;;;;;7.13;4.55;;;;;;;12.07;100.00;96618.69;5065232;28;20056;-50
2022/05/15 00:58:51;;;;;;;8.63;5.40;;;;;;;12.00;100.00;96616.78;5064476;28;20056;-54
2022/05/15 01:01:20;;;;;;;11.05;4.90;;;;;;;11.63;100.00;96615.88;5063720;28;20525;-49
2022/05/15 01:03:48;;;;;;;8.50;4.90;;;;;;;11.45;100.00;96620.25;5063636;28;20102;-49
2022/05/15 01:06:18;;;;;;;6.03;4.97;;;;;;;11.56;100.00;96624.50;5064310;28;20075;-51
2022/05/15 01:08:47;;;;;;;6.13;4.90;;;;;;;11.66;100.00;96620.00;5064548;28;20174;-46
2022/05/15 01:11:18;;;;;;;7.60;5.10;;;;;;;11.75;100.00;96615.66;5062071;28;20076;-50
2022/05/15 01:13:49;;;;;;;8.18;4.97;;;;;;;11.53;100.00;96615.09;5066157;28;20056;-46
2022/05/15 01:16:18;;;;;;;;;;;;;;;11.75;100.00;96613.84;5065983;28;20075;-50
2022/05/15 01:18:47;;;;;;;7.35;4.88;;;;;;;11.56;100.00;96616.59;5066121;28;19952;-47
2022/05/15 01:21:23;;;;;;;8.60;5.28;;;;;;;11.61;100.00;96612.53;5068373;28;20464;-52
2022/05/15 01:23:52;;;;;;;6.00;5.22;;;;;;;11.58;100.00;96615.47;5063099;28;20064;-53
2022/05/15 01:26:22;;;;;;;6.00;4.25;;;;;;;11.68;100.00;96617.25;5064512;28;20060;-46
2022/05/15 01:28:51;;;;;;;6.85;4.47;;;;;;;11.40;100.00;96614.59;5067074;28;20068;-48
2022/05/15 01:31:20;;;;;;;9.85;5.22;;;;;;;11.59;100.00;96611.00;5059804;28;20068;-48
2022/05/15 01:33:49;;;;;;;9.38;5.28;;;;;;;11.71;100.00;96615.13;5064711;28;20075;-52
2022/05/15 01:36:20;;;;;;;6.60;5.05;;;;;;;11.62;100.00;96608.91;5063217;28;20581;-46
2022/05/15 01:38:49;;;;;;;6.15;5.03;;;;;;;11.60;100.00;96610.06;5061132;28;20448;-51
2022/05/15 01:41:17;;;;;;;5.85;5.25;;;;;;;11.53;100.00;96614.28;5064151;28;20061;-48
2022/05/15 01:43:47;;;;;;;8.15;5.95;;;;;;;11.40;100.00;96622.53;5064563;28;20439;-45
2022/05/15 01:46:16;;;;;;;8.63;6.32;;;;;;;11.49;100.00;96610.22;5061301;28;20103;-46
2022/05/15 01:48:47;;;;;;;10.30;5.88;;;;;;;11.39;100.00;96613.78;5064517;28;20087;-47
2022/05/15 01:51:15;;;;;;;7.95;6.20;;;;;;;11.38;100.00;96616.53;5062773;28;20072;-48
2022/05/15 01:53:45;;;;;;;10.48;5.78;;;;;;;11.32;100.00;96614.47;5061936;28;20462;-47
2022/05/15 01:56:14;;;;;;;8.90;6.03;;;;;;;11.11;100.00;96619.97;5065305;28;20087;-51
2022/05/15 01:58:42;;;;;;;7.72;6.18;;;;;;;11.33;100.00;96619.63;5063035;28;20949;-47
2022/05/15 02:01:10;;;;;;;9.10;6.63;;;;;;;11.41;100.00;96613.63;5067370;28;20076;-47
2022/05/15 02:03:38;;;;;;;8.13;6.80;;;;;;;11.43;100.00;96614.31;5063675;28;20404;-48
2022/05/15 02:06:07;;;;;;;7.32;6.22;;;;;;;11.45;100.00;96603.59;5062802;28;20057;-47
2022/05/15 02:08:36;;;;;;;11.95;6.68;;;;;;;11.44;100.00;96602.75;5062890;28;20064;-51
2022/05/15 02:11:06;;;;;;;9.77;6.80;;;;;;;11.33;100.00;96605.59;5064324;28;20094;-52
2022/05/15 02:13:34;;;;;;;7.30;6.00;;;;;;;11.21;100.00;96612.03;5062211;28;20067;-55
2022/05/15 02:16:03;;;;;;;6.97;6.13;;;;;;;11.13;100.00;96600.38;5061965;28;20526;-47
2022/05/15 02:18:31;;;;;;;9.85;6.70;;;;;;;11.07;100.00;96610.69;5063788;28;20071;-49
2022/05/15 02:21:00;;;;;;;7.28;6.47;;;;;;;11.05;100.00;96602.09;5065857;28;20144;-53
2022/05/15 02:23:28;;;;;;;8.02;7.03;;;;;;;11.14;100.00;96607.31;5063124;28;20075;-51
2022/05/15 02:25:56;;;;;;;7.88;7.07;;;;;;;11.24;100.00;96603.81;5060117;28;20078;-52
2022/05/15 02:28:27;;;;;;;11.00;7.97;;;;;;;11.22;100.00;96603.13;5059458;28;20080;-49
2022/05/15 02:30:55;;;;;;;11.25;8.30;;;;;;;11.15;100.00;96598.44;5065454;28;20096;-50
2022/05/15 02:33:23;;;;;;;10.82;8.32;;;;;;;11.16;100.00;96607.19;5062912;28;20114;-52
2022/05/15 02:35:52;;;;;;;10.95;8.27;;;;;;;11.04;100.00;96601.25;5062688;28;20076;-49
2022/05/15 02:38:20;;;;;;;11.13;8.00;;;;;;;11.14;100.00;96607.31;5061472;28;20075;-49
2022/05/15 02:40:49;;;;;;;10.80;8.27;;;;;;;11.14;100.00;96601.22;5063528;28;20072;-53
2022/05/15 02:43:17;;;;;;;10.55;8.25;;;;;;;11.14;100.00;96601.22;5062889;28;20526;-49
2022/05/15 02:45:47;;;;;;;11.32;8.55;;;;;;;11.16;100.00;96596.63;5062142;28;20091;-47
2022/05/15 02:51:06;;;;;;;13.00;9.25;;;;;;;11.17;100.00;96599.13;5063477;28;20476;-48
2022/05/15 02:53:36;;;;;;;12.00;9.63;;;;;;;11.16;100.00;96609.84;5059732;28;20068;-50
2022/05/15 02:56:12;;;;;;;13.35;11.27;;;;;;;11.12;100.00;96600.53;5060895;28;20068;-48
2022/05/15 02:58:40;;;;;;;11.80;10.02;;;;;;;11.10;100.00;96605.94;5060813;28;20084;-51
2022/05/15 03:01:10;;;;;;;11.93;10.05;;;;;;;11.23;100.00;96603.00;5063751;28;20094;-50
2022/05/15 03:03:39;;;;;;;11.63;9.60;;;;;;;11.12;100.00;96605.81;5063525;28;20527;-49
2022/05/15 03:06:08;;;;;;;12.05;8.82;;;;;;;11.14;100.00;96604.69;5062188;28;20068;-55
2022/05/15 03:08:38;;;;;;;12.82;9.05;;;;;;;11.23;100.00;96612.72;5061266;28;20546;-49
2022/05/15 03:11:07;;;;;;;11.38;9.02;;;;;;;10.97;100.00;96601.97;5060426;28;20080;-55
2022/05/15 03:13:36;;;;;;;8.43;7.28;;;;;;;10.96;100.00;96606.41;5056642;28;20067;-52
2022/05/15 03:16:04;;;;;;;9.30;7.72;;;;;;;11.04;100.00;96606.53;5063679;28;20080;-48
2022/05/15 03:18:42;;;;;;;10.85;7.63;;;;;;;10.97;100.00;96607.25;5063580;28;20071;-48
2022/05/15 03:21:10;;;;;;;11.50;7.97;;;;;;;10.96;100.00;96603.78;5057178;28;20082;-49
2022/05/15 03:23:39;;;;;;;9.70;7.47;;;;;;;10.94;100.00;96605.72;5060720;28;20072;-48
2022/05/15 03:26:07;;;;;;;9.35;7.30;;;;;;;10.99;100.00;96607.94;5054521;28;20075;-54
2022/05/15 03:28:35;;;;;;;10.35;7.72;;;;;;;10.99;100.00;96600.03;5062731;28;20060;-59
2022/05/15 03:31:03;;;;;;;9.60;7.43;;;;;;;11.03;100.00;96612.78;5062601;28;20552;-47
2022/05/15 03:33:33;;;;;;;9.98;6.65;;;;;;;10.96;100.00;96610.88;5060796;28;20661;-46
2022/05/15 03:36:03;;;;;;;12.15;7.18;;;;;;;10.93;100.00;96606.69;5064846;28;20476;-47
2022/05/15 03:38:31;;;;;;;14.70;8.02;;;;;;;10.98;100.00;96608.91;5059505;28;20632;-52
2022/05/15 03:40:59;;;;;;;10.73;8.50;;;;;;;10.96;100.00;96606.41;5064061;28;20455;-47
2022/05/15 03:43:27;;;;;;;8.02;7.13;;;;;;;10.90;100.00;96604.34;5062818;28;20090;-46
2022/05/15 03:45:56;;;;;;;9.55;7.80;;;;;;;10.90;100.00;96606.97;5064894;28;20471;-47
2022/05/15 03:48:24;;;;;;;8.18;7.38;;;;;;;10.62;100.00;96606.06;5063634;28;20064;-50
2022/05/15 03:50:54;;;;;;;8.75;7.40;;;;;;;10.76;100.00;96610.91;5062301;28;20060;-49
2022/05/15 03:53:23;;;;;;;8.20;7.40;;;;;;;10.73;100.00;96613.81;5059112;28;20108;-46
2022/05/15 03:55:55;;;;;;;12.23;8.82;;;;;;;10.90;100.00;96617.53;5062525;28;20869;-49
2022/05/15 03:58:24;;;;;;;11.93;9.65;;;;;;;11.82;100.00;96609.63;5062121;28;20087;-52
2022/05/15 04:00:52;;;;;;;12.38;9.18;;;;;;;12.28;100.00;96594.59;5061446;28;20076;-49
2022/05/15 04:03:21;;;;;;;10.95;9.52;;;;;;;12.84;100.00;96592.56;5062907;28;20768;-46
2022/05/15 04:05:50;;;;;;;10.05;9.05;;;;;;;13.23;100.00;96586.81;5061252;28;20084;-50
2022/05/15 04:08:20;;;;;;;10.05;8.50;;;;;;;13.53;100.00;96588.97;5063585;28;20068;-51
2022/05/15 04:10:48;;;;;;;9.98;7.95;;;;;;;13.85;100.00;96584.75;5063777;28;20060;-50
2022/05/15 04:13:16;;;;;;;8.65;7.53;;;;;;;14.76;100.00;96567.09;5062788;28;20084;-52
2022/05/15 04:15:44;;;;;;;9.85;7.43;;;;;;;14.83;100.00;96571.59;5065978;28;20103;-52
2022/05/15 04:18:13;;;;;;;8.00;7.30;;;;;;;14.01;100.00;96576.84;5062342;28;20542;-51
2022/05/15 04:20:42;;;;;;;8.27;7.45;;;;;;;14.91;100.00;96576.88;5066756;28;20067;-49
2022/05/15 04:23:10;;;;;;;8.32;7.40;;;;;;;15.76;100.00;96568.31;5064385;28;20064;-51
2022/05/15 04:25:40;;;;;;;9.88;7.85;;;;;;;15.84;100.00;96570.94;5064870;28;20099;-52
2022/05/15 04:28:08;;;;;;;9.20;7.80;;;;;;;15.05;100.00;96571.88;5068648;28;20079;-51
2022/05/15 04:30:36;;;;;;;8.07;7.43;;;;;;;14.71;100.00;96581.72;5069527;28;20075;-46
2022/05/15 04:33:05;;;;;;;8.07;7.38;;;;;;;15.63;100.00;96576.81;5064856;28;20478;-49
2022/05/15 04:35:34;;;;;;;8.57;7.78;;;;;;;16.77;100.00;96579.78;5069315;28;20083;-46
2022/05/15 04:38:02;;;;;;;9.30;7.50;;;;;;;17.11;100.00;96576.63;5068698;28;20474;-48
2022/05/15 04:40:31;;;;;;;8.50;7.68;;;;;;;17.08;100.00;96580.47;5067866;28;20087;-48
2022/05/15 04:43:00;;;;;;;9.00;8.10;;;;;;;17.55;100.00;96575.78;5067393;28;20090;-47
2022/05/15 04:45:29;;;;;;;8.70;7.90;;;;;;;18.23;100.00;96577.19;5068701;28;20072;-47
2022/05/15 04:47:57;;;;;;;8.82;7.90;;;;;;;17.69;100.00;96574.94;5069798;28;20075;-47
2022/05/15 04:50:25;;;;;;;9.15;8.25;;;;;;;17.84;100.00;96582.13;5069491;28;20063;-47
2022/05/15 04:52:54;;;;;;;9.52;7.95;;;;;;;17.69;100.00;96590.94;5069125;28;20138;-46
2022/05/15 04:55:23;;;;;;;10.40;8.55;;;;;;;18.13;100.00;96582.03;5068168;28;20095;-50
2022/05/15 04:57:51;;;;;;;9.20;8.30;;;;;;;18.69;100.00;96589.38;5059721;28;20068;-50
2022/05/15 05:00:21;;;;;;;9.90;8.52;;;;;;;18.96;100.00;96585.94;5063189;28;20064;-46
2022/05/15 05:02:49;;;;;;;9.70;8.07;;;;;;;19.00;100.00;96591.72;5061702;28;20471;-51
2022/05/15 05:05:17;;;;;;;9.95;8.13;;;;;;;20.14;100.00;96589.44;5064337;28;20055;-49
2022/05/15 05:07:46;;;;;;;8.25;7.45;;;;;;;20.43;100.00;96595.47;5065713;28;20036;-48
2022/05/15 05:10:15;;;;;;;8.32;7.40;;;;;;;20.60;100.00;96602.13;5062286;28;20064;-51
2022/05/15 05:12:44;;;;;;;9.15;8.13;;;;;;;18.64;100.00;96603.28;5068062;28;20084;-53
2022/05/15 05:15:14;;;;;;;9.07;8.20;;;;;;;20.03;100.00;96590.03;5064297;28;20166;-49
2022/05/15 05:17:44;;;;;;;8.40;7.50;;;;;;;20.14;100.00;96602.84;5066639;28;20040;-51
2022/05/15 05:20:14;;;;;;;7.80;7.10;;;;;;;20.22;100.00;96601.00;5066839;28;20462;-51
2022/05/15 05:22:43;;;;;;;8.27;7.47;;;;;;;20.39;100.00;96605.78;5063213;28;20530;-51
2022/05/15 05:25:12;;;;;;;8.98;8.07;;;;;;;20.09;100.00;96602.59;5066204;28;20087;-54
2022/05/15 05:27:42;;;;;;;11.15;8.05;;;;;;;19.99;100.00;96604.81;5065890;28;20099;-52
2022/05/15 05:30:16;;;;;;;11.18;8.70;;;;;;;20.15;100.00;96604.47;5065498;28;20094;-52
2022/05/15 05:32:47;;;;;;;10.32;8.90;;;;;;;20.44;100.00;96609.69;5062955;28;20083;-55
2022/05/15 05:35:17;;;;;;;17.02;9.30;;;;;;;19.99;100.00;96607.50;5062545;28;20071;-47
2022/05/15 05:37:46;;;;;;;10.43;9.32;;;;;;;19.82;100.00;96615.06;5066287;28;20064;-49
2022/05/15 05:40:14;;;;;;;10.10;9.10;;;;;;;19.99;100.00;96614.72;5063766;28;20084;-53
2022/05/15 05:42:43;;;;;;;9.65;8.65;;;;;;;19.53;100.00;96612.63;5064103;28;20187;-50
2022/05/15 05:45:12;;;;;;;9.43;8.43;;;;;;;19.40;100.00;96616.03;5065520;28;20056;-48
2022/05/15 05:47:40;;;;;;;10.88;9.30;;;;;;;18.37;100.00;96620.88;5059802;28;20063;-49
2022/05/15 05:50:10;;;;;;;12.35;9.30;;;;;;;17.57;100.00;96624.41;5060856;28;20495;-51
2022/05/15 05:52:39;;;;;;;11.38;9.25;;;;;;;17.70;100.00;96616.59;5068775;28;20771;-51
2022/05/15 05:55:11;;;;;;;11.50;9.52;;;;;;;17.69;100.00;96614.94;5065576;28;20079;-49
2022/05/15 05:57:39;;;;;;;12.30;9.90;;;;;;;17.93;100.00;96621.84;5064387;28;21274;-47
2022/05/15 06:00:17;;;;;;;13.05;10.35;;;;;;;17.17;100.00;96620.34;5064803;28;20068;-52
2022/05/15 06:02:46;;;;;;;11.43;10.32;;;;;;;17.37;100.00;96626.78;5064279;28;20075;-53
2022/05/15 06:05:15;;;;;;;13.40;11.35;;;;;;;17.18;100.00;96617.50;5063736;28;20079;-54
2022/05/15 06:07:44;;;;;;;15.60;11.45;;;;;;;17.39;100.00;96619.47;5058286;28;20057;-48
2022/05/15 06:10:14;;;;;;;14.98;11.60;;;;;;;17.59;100.00;96624.25;5063399;28;20082;-47
2022/05/15 06:12:43;;;;;;;14.88;11.25;;;;;;;17.54;100.00;96627.44;5063864;28;20068;-52
2022/05/15 06:15:11;;;;;;;12.40;11.10;;;;;;;17.78;100.00;96623.69;5064520;28;20059;-52
2022/05/15 06:17:40;;;;;;;13.90;11.57;;;;;;;17.87;100.00;96621.75;5062651;28;20068;-51
2022/05/15 06:20:10;;;;;;;16.45;11.82;;;;;;;17.75;100.00;96624.84;5058683;28;20064;-47
2022/05/15 06:22:41;;;;;;;14.55;12.50;;;;;;;17.68;100.00;96633.78;5063195;28;20072;-51
2022/05/15 06:25:09;;;;;;;;;;;;;;;17.42;100.00;96637.75;5065905;28;20080;-54
2022/05/15 06:27:39;;;;;;;15.30;13.07;;;;;;;17.32;100.00;96635.34;5060771;28;20342;-50
2022/05/15 06:30:08;;;;;;;16.55;12.60;;;;;;;17.82;100.00;96630.31;5059589;28;20064;-51
2022/05/15 06:32:38;;;;;;;18.63;12.90;;;;;;;17.24;100.00;96629.25;5061974;28;20076;-48
2022/05/15 06:35:07;;;;;;;14.50;12.87;;;;;;;17.67;100.00;96635.63;5060723;28;20455;-53
2022/05/15 06:37:35;;;;;;;17.08;13.35;;;;;;;17.82;100.00;96632.97;5064724;28;20060;-47
2022/05/15 06:40:07;;;;;;;15.07;13.05;;;;;;;18.21;100.00;96635.31;5063049;28;20080;-48
2022/05/15 06:42:35;;;;;;;16.02;12.82;;;;;;;17.81;100.00;96639.34;5059720;28;20091;-47
2022/05/15 06:45:05;;;;;;;18.80;12.80;;;;;;;18.48;100.00;96631.09;5061971;28;20106;-57
2022/05/15 06:47:36;;;;;;;24.48;13.02;;;;;;;18.44;100.00;96635.16;5065869;28;20071;-48
2022/05/15 06:50:05;;;;;;;14.85;13.05;;;;;;;18.14;100.00;96636.25;5061693;28;20075;-53
2022/05/15 06:52:34;;;;;;;17.38;13.25;;;;;;;18.63;100.00;96628.34;5065716;28;21163;-50
2022/05/15 06:55:03;;;;;;;15.77;13.60;;;;;;;18.96;100.00;96633.22;5066497;28;20088;-49
2022/05/15 06:57:33;;;;;;;14.82;12.63;;;;;;;18.87;100.00;96639.69;5061190;28;20534;-50
2022/05/15 07:00:09;;;;;;;14.38;12.77;;;;;;;19.02;100.00;96635.09;5066684;28;20094;-54
2022/05/15 07:02:40;;;;;;;16.33;13.38;;;;;;;19.03;100.00;96633.22;5058464;28;20655;-53
2022/05/15 07:05:10;;;;;;;14.65;12.05;;;;;;;19.55;100.00;96624.78;5061084;28;20072;-48
2022/05/15 07:07:40;;;;;;;12.90;11.60;;;;;;;19.82;100.00;96623.09;5062620;28;20105;-52
2022/05/15 07:10:09;;;;;;;13.73;11.90;;;;;;;19.95;100.00;96625.00;5058459;28;20575;-54
2022/05/15 07:12:38;;;;;;;13.90;11.10;;;;;;;20.27;100.00;96623.47;5064011;28;20057;-51
2022/05/15 07:15:08;;;;;;;14.20;11.70;;;;;;;20.23;100.00;96624.88;5066516;28;20071;-49
2022/05/15 07:17:36;;;;;;;19.93;11.47;;;;;;;20.48;100.00;96624.38;5062712;28;20656;-56
2022/05/15 07:20:06;;;;;;;12.85;10.63;;;;;;;20.72;100.00;96617.63;5063357;28;20518;-50
2022/05/15 07:22:34;;;;;;;13.47;12.07;;;;;;;21.02;100.00;96629.59;5060046;28;20064;-49
2022/05/15 07:25:03;;;;;;;13.35;11.30;;;;;;;20.88;100.00;96619.88;5061220;28;20087;-49
2022/05/15 07:27:31;;;;;;;12.35;10.27;;;;;;;20.45;100.00;96620.22;5058072;28;20063;-50
2022/05/15 07:30:01;;;;;;;13.05;9.43;;;;;;;20.98;100.00;96614.13;5064513;28;20493;-46
2022/05/15 07:32:29;;;;;;;11.37;10.27;;;;;;;21.20;100.00;96612.88;5058806;28;20057;-49
2022/05/15 07:34:57;;;;;;;11.57;10.13;;;;;;;21.21;100.00;96617.22;5050969;28;20590;-50
2022/05/15 07:37:25;;;;;;;12.30;10.00;;;;;;;21.06;100.00;96616.63;5054395;28;20073;-47
2022/05/15 07:39:54;;;;;;;10.50;8.77;;;;;;;21.00;100.00;96612.91;5061277;28;20084;-46
2022/05/15 07:42:22;;;;;;;8.70;7.60;;;;;;;21.17;100.00;96610.63;5059581;28;20067;-51
2022/05/15 07:44:54;;;;;;;9.80;8.80;;;;;;;21.18;100.00;96606.06;5052950;28;20874;-54
2022/05/15 07:47:23;;;;;;;11.20;9.77;;;;;;;21.17;100.00;96607.13;5060367;28;20060;-50
2022/05/15 07:49:52;;;;;;;15.10;10.50;;;;;;;20.97;100.00;96599.91;5061046;28;20519;-47
2022/05/15 07:52:20;;;;;;;10.70;8.40;;;;;;;21.43;100.00;96601.72;5063767;28;20076;-50
2022/05/15 07:54:49;;;;;;;9.93;6.32;;;;;;;20.74;100.00;96602.16;5066309;28;20086;-51
2022/05/15 07:57:18;;;;;;;8.73;7.82;;;;;;;21.65;100.00;96605.00;5065703;28;20075;-46
2022/05/15 07:59:46;;;;;;;8.68;7.78;;;;;;;21.72;100.00;96607.66;5062826;28;20083;-46
2022/05/15 08:02:14;;;;;;;7.93;7.00;;;;;;;22.29;100.00;96603.31;5063266;28;20075;-45
2022/05/15 08:10:16;;;;;;;9.93;6.97;;;;;;;22.13;100.00;96606.47;5067972;28;20075;-46
2022/05/15 08:12:45;;;;;;;9.23;6.85;;;;;;;22.66;100.00;96598.13;5062160;28;20075;-51
2022/05/15 08:15:13;;;;;;;8.65;5.10;;;;;;;22.57;100.00;96602.94;5054550;28;20064;-50
2022/05/15 08:17:47;;;;;;;6.90;5.05;;;;;;;22.18;95.40;96610.19;5052350;28;20063;-46
2022/05/15 08:25:48;;;;;;;7.45;5.47;;;;;;;22.83;100.00;96601.13;5058538;28;22243;-48
2022/05/15 08:28:17;;;;;;;9.80;6.88;;;;;;;22.57;100.00;96605.63;5039629;28;20135;-52
2022/05/15 08:30:46;;;;;;;7.65;6.00;;;;;;;22.65;100.00;96601.88;5040640;28;20151;-51
2022/05/15 08:33:14;;;;;;;6.95;5.80;;;;;;;22.95;100.00;96594.84;5023282;28;20179;-50
2022/05/15 08:35:45;;;;;;;6.80;5.87;;;;;;;22.53;100.00;96599.03;5039317;28;20152;-52
2022/05/15 08:38:15;;;;;;;9.75;6.85;;;;;;;22.87;100.00;96596.94;5020095;28;20171;-48
2022/05/15 08:40:48;;;;;;;8.30;7.25;;;;;;;22.98;100.00;96598.94;5048571;28;20266;-53
2022/05/15 08:43:22;;;;;;;8.30;7.30;;;;;;;23.05;100.00;96604.28;5057494;28;20071;-52
2022/05/15 08:45:58;;;;;;;8.40;6.18;;;;;;;22.93;100.00;96606.84;5065409;28;20064;-50
2022/05/15 08:48:27;;;;;;;8.95;6.57;;;;;;;22.95;100.00;96600.22;5063202;28;20084;-49
2022/05/15 08:50:59;;;;;;;9.15;6.63;;;;;;;23.40;100.00;96605.41;5069074;28;20464;-48
2022/05/15 08:53:30;;;;;;;9.48;6.47;;;;;;;22.98;100.00;96605.13;5067195;28;20075;-46
2022/05/15 08:56:00;;;;;;;8.57;6.32;;;;;;;22.87;100.00;96610.38;5068248;28;20537;-49
2022/05/15 08:58:36;;;;;;;6.72;5.93;;;;;;;23.03;100.00;96606.38;5070777;28;20094;-51
2022/05/15 09:01:06;;;;;;;6.55;4.75;;;;;;;23.07;97.58;96612.94;5071003;28;20088;-46
2022/05/15 09:03:38;;;;;;;7.32;4.80;;;;;;;23.19;96.84;96617.41;5070146;28;20075;-49
2022/05/15 09:06:10;;;;;;;6.47;4.22;;;;;;;23.39;83.91;96611.00;5070848;28;20080;-49
2022/05/15 09:08:55;;;;;;;5.68;4.40;;;;;;;23.40;81.63;96621.56;5064076;28;20075;-49
2022/05/15 09:11:31;;;;;;;6.43;4.53;;;;;;;23.44;96.13;96612.00;5069939;28;20110;-52
2022/05/15 09:14:07;;;;;;;6.95;3.35;;;;;;;23.70;80.44;96620.84;5070528;28;20064;-47
2022/05/15 09:16:36;;;;;;;5.50;3.58;;;;;;;23.86;64.98;96612.19;5070161;28;20064;-48
2022/05/15 09:19:07;;;;;;;6.78;3.45;;;;;;;23.84;70.46;96613.47;5070611;28;20080;-51
2022/05/15 09:21:36;;;;;;;6.72;2.53;;;;;;;23.54;51.72;96614.19;5070113;28;20075;-48
2022/05/15 09:24:08;;;;;;;3.60;2.75;;;;;;;24.03;57.90;96619.69;5070393;28;20068;-47
2022/05/15 09:26:45;;;;;;;4.70;2.63;;;;;;;23.91;63.18;96608.81;5070196;28;20063;-48
2022/05/15 09:29:18;;;;;;;6.25;2.97;;;;;;;24.17;66.64;96603.09;5065200;28;20380;-47
2022/05/15 09:31:47;;;;;;;8.52;3.15;;;;;;;23.80;62.16;96605.00;5069761;28;20391;-51
2022/05/15 09:34:26;;;;;;;4.07;2.60;;;;;;;23.86;64.25;96601.41;5070370;28;20144;-46
2022/05/15 09:38:26;;;;;;;4.53;2.63;;;;;;;23.90;63.36;96602.59;5063206;28;20503;-49
2022/05/15 09:39:47;;;;;;;7.38;2.25;;;;;;;23.81;52.99;96601.28;5069465;28;20544;-51
2022/05/15 09:45:23;;;;;;;3.88;2.53;;;;;;;24.06;58.31;96611.16;5067240;28;20062;-54
2022/05/15 09:48:03;;;;;;;4.97;2.38;;;;;;;24.37;58.12;96608.25;5069897;28;20056;-50
2022/05/15 09:50:41;;;;;;;4.20;2.30;;;;;;;24.12;61.24;96604.81;5069858;28;20035;-49
2022/05/15 09:53:14;;;;;;;4.50;2.60;;;;;;;24.50;60.45;96601.03;5069817;28;20064;-50
2022/05/15 09:55:42;;;;;;;4.93;2.90;;;;;;;24.58;63.50;96603.44;5070606;28;20075;-51
2022/05/15 09:58:19;;;;;;;3.20;2.00;;;;;;;24.49;55.94;96602.09;5070231;28;20084;-51
2022/05/15 10:00:48;;;;;;;4.45;2.35;;;;;;;24.54;61.37;96602.25;5068768;28;20543;-52
2022/05/15 10:03:20;;;;;;;4.28;2.40;;;;;;;24.55;54.88;96599.31;5070722;28;20091;-46
2022/05/15 10:05:58;;;;;;;3.60;1.95;;;;;;;24.87;45.62;96591.75;5071418;28;20683;-47
2022/05/15 10:08:29;;;;;;;3.25;1.92;;;;;;;24.61;44.51;96598.41;5069706;28;20060;-49
2022/05/15 10:10:59;;;;;;;3.40;1.83;;;;;;;24.63;41.56;96587.38;5069356;28;20060;-57
2022/05/15 10:13:32;;;;;;;4.70;2.25;;;;;;;24.82;43.04;96596.22;5068806;28;20079;-53
2022/05/15 10:16:05;;;;;;;5.18;2.40;;;;;;;24.69;43.67;96599.94;5069779;28;20067;-47
2022/05/15 10:18:45;;;;;;;3.40;2.38;;;;;;;24.95;48.12;96589.75;5065703;28;20440;-47
2022/05/15 10:21:15;;;;;;;6.50;2.88;;;;;;;24.79;47.79;96581.31;5068960;28;20530;-50
2022/05/15 10:23:56;;;;;;;5.22;2.17;;;;;;;24.75;38.25;96584.72;5069185;28;20064;-50
2022/05/15 10:26:28;;;;;;;4.32;2.22;;;;;;;24.90;41.85;96581.56;5069209;28;20060;-58
2022/05/15 10:29:05;;;;;;;3.60;2.10;;;;;;;24.69;38.41;96586.44;5068695;28;20064;-52
2022/05/15 10:31:38;;;;;;;5.38;2.30;;;;;;;24.90;38.70;96581.56;5066625;28;20064;-47
2022/05/15 10:34:12;;;;;;;9.48;2.50;;;;;;;24.66;40.17;96578.81;5066110;28;20482;-46
2022/05/15 10:36:50;;;;;;;4.72;2.58;;;;;;;24.87;45.98;96575.56;5068646;28;20313;-48
2022/05/15 10:39:28;;;;;;;4.57;2.45;;;;;;;25.04;45.08;96574.88;5065908;28;20071;-52
2022/05/15 10:42:02;;;;;;;4.35;2.47;;;;;;;25.14;44.69;96577.88;5059638;28;20061;-49
2022/05/15 10:44:39;;;;;;;4.38;2.50;;;;;;;25.37;45.32;96562.75;5068758;28;20071;-49
2022/05/15 10:47:12;;;;;;;5.30;2.20;;;;;;;25.10;45.49;96563.16;5066561;28;20463;-49
2022/05/15 10:50:12;;;;;;;4.82;2.42;;;;;;;24.95;46.69;96558.25;5068336;28;20075;-50
2022/05/15 10:52:48;;;;;;;4.68;2.30;;;;;;;25.24;43.32;96553.81;5063754;28;20079;-50
2022/05/15 10:58:15;;;;;;;3.20;2.10;;;;;;;25.55;43.50;96557.19;5064865;28;20467;-51
2022/05/15 11:00:48;;;;;;;4.68;3.00;;;;;;;24.77;46.00;96542.94;5067743;28;21296;-50
2022/05/15 11:03:52;;;;;;;4.50;3.00;;;;;;;25.26;43.16;96550.88;5068498;28;20068;-50
2022/05/15 11:06:37;;;;;;;3.50;2.60;;;;;;;25.12;44.10;96553.00;5029521;28;20083;-52
2022/05/15 11:09:09;;;;;;;4.55;2.88;;;;;;;25.12;45.17;96544.91;5067823;28;20537;-51
2022/05/15 11:12:16;;;;;;;5.10;3.20;;;;;;;25.46;47.61;96537.00;5062982;28;20083;-47
2022/05/15 11:15:03;;;;;;;4.70;2.80;;;;;;;25.23;45.03;96537.88;5067001;28;20071;-50
2022/05/15 11:17:36;;;;;;;7.03;2.90;;;;;;;25.19;44.58;96539.38;5068649;28;20060;-46
2022/05/15 11:20:08;;;;;;;5.75;2.60;;;;;;;25.48;46.33;96533.00;5068491;28;20072;-47
2022/05/15 11:22:41;;;;;;;5.43;2.30;;;;;;;25.62;41.92;96528.16;5068215;28;20067;-51
2022/05/15 11:25:14;;;;;;;3.88;2.40;;;;;;;25.19;40.25;96526.72;5068249;28;20080;-53
2022/05/15 11:27:48;;;;;;;3.47;2.20;;;;;;;25.16;39.60;96531.75;5067590;28;20442;-51
2022/05/15 11:30:21;;;;;;;5.47;2.30;;;;;;;25.34;42.63;96518.94;5067992;28;20063;-46
2022/05/15 11:33:03;;;;;;;4.95;2.50;;;;;;;25.49;44.68;96525.72;5067822;28;20068;-47
2022/05/15 11:35:35;;;;;;;5.03;2.15;;;;;;;25.74;42.43;96520.88;5061471;28;20036;-47
2022/05/15 11:38:11;;;;;;;4.93;2.40;;;;;;;26.08;39.17;96521.00;5062631;28;20079;-49
2022/05/15 11:40:41;;;;;;;4.03;2.35;;;;;;;25.39;42.13;96522.81;5063318;28;20063;-46
2022/05/15 11:43:35;;;;;;;3.22;2.20;;;;;;;25.58;43.63;96518.91;5064267;28;20176;-47
2022/05/15 11:46:06;;;;;;;6.13;2.38;;;;;;;25.39;45.33;96509.31;5042053;28;20072;-51
2022/05/15 11:48:51;;;;;;;6.38;2.30;;;;;;;25.96;47.83;96506.72;5068498;28;20068;-46
2022/05/15 11:51:29;;;;;;;4.53;2.20;;;;;;;26.05;42.52;96510.69;5068567;28;20072;-47
2022/05/15 11:54:00;;;;;;;3.53;2.47;;;;;;;25.69;49.51;96507.25;5062702;28;20102;-50
2022/05/15 11:56:36;;;;;;;4.53;2.45;;;;;;;25.89;42.67;96496.06;5066013;28;20614;-48
2022/05/15 11:59:12;;;;;;;4.18;2.20;;;;;;;25.92;43.67;96489.38;5062157;28;20098;-47
2022/05/15 12:01:50;;;;;;;4.90;2.20;;;;;;;26.02;40.61;96495.78;5059224;28;20132;-51